Time;durP1;ratioP1;P1;durP2;ratioP2;P2;SDS_P1;SDS_P2;PMS_P1;PMS_P2;Temp;Humidity;BMP_temperature;BMP_pressure;BME280_temperature;BME280_humidity;BME280_pressure;Samples;Min_cycle;Max_cycle;Signal;HPM_P1;HPM_P2
2023/01/07 00:02:02;;;;;;;9.00;3.47;;;;;;;6.90;100.00;101341.47;5032964;28;20486;-70
2023/01/07 00:04:28;;;;;;;7.83;3.60;;;;;;;6.83;100.00;101339.00;5032669;28;20438;-71
2023/01/07 00:06:55;;;;;;;9.07;3.67;;;;;;;6.78;100.00;101339.78;5032988;28;20458;-70
2023/01/07 00:09:22;;;;;;;7.87;3.10;;;;;;;6.71;100.00;101330.28;5032953;28;20501;-70
2023/01/07 00:11:48;;;;;;;8.47;3.60;;;;;;;6.67;100.00;101327.28;5033298;28;20493;-70
2023/01/07 00:14:16;;;;;;;8.50;3.47;;;;;;;6.58;100.00;101326.94;5032862;28;20869;-70
2023/01/07 00:16:43;;;;;;;7.77;3.70;;;;;;;6.59;100.00;101319.66;5032609;28;20486;-70
2023/01/07 00:19:13;;;;;;;7.90;3.63;;;;;;;6.53;100.00;101328.78;5033153;28;20443;-70
2023/01/07 00:21:39;;;;;;;8.40;3.63;;;;;;;6.47;100.00;101327.94;5032786;28;20569;-71
2023/01/07 00:24:07;;;;;;;8.53;3.33;;;;;;;6.45;100.00;101316.59;5032314;28;20518;-71
2023/01/07 00:26:36;;;;;;;8.40;2.73;;;;;;;6.43;100.00;101320.63;5032138;28;20498;-70
2023/01/07 00:29:03;;;;;;;8.77;3.23;;;;;;;6.40;100.00;101324.63;5032500;28;20450;-70
2023/01/07 00:31:32;;;;;;;11.30;3.87;;;;;;;6.37;100.00;101332.38;5032454;28;20518;-70
2023/01/07 00:34:08;;;;;;;7.87;3.10;;;;;;;6.36;100.00;101320.00;5032563;28;20813;-70
2023/01/07 00:36:41;;;;;;;13.60;3.30;;;;;;;6.36;100.00;101328.06;5032157;28;20470;-69
2023/01/07 00:39:11;;;;;;;8.60;3.47;;;;;;;6.35;100.00;101318.38;5032197;28;20438;-70
2023/01/07 00:41:38;;;;;;;8.63;3.30;;;;;;;6.32;100.00;101323.19;5032706;28;20474;-70
2023/01/07 00:44:06;;;;;;;7.53;3.50;;;;;;;6.29;100.00;101317.53;5032477;28;20586;-70
2023/01/07 00:46:34;;;;;;;9.80;2.80;;;;;;;6.28;100.00;101324.75;5032360;28;20558;-71
2023/01/07 00:49:01;;;;;;;8.87;3.57;;;;;;;6.22;100.00;101323.09;5032784;28;20442;-70
2023/01/07 00:51:28;;;;;;;11.00;3.50;;;;;;;6.20;100.00;101321.75;5032554;28;20439;-70
2023/01/07 00:53:54;;;;;;;10.30;2.93;;;;;;;6.16;100.00;101318.75;5031332;28;20439;-71
2023/01/07 00:56:21;;;;;;;9.30;3.53;;;;;;;6.18;100.00;101324.66;5034881;28;20840;-71
2023/01/07 00:58:47;;;;;;;9.87;3.47;;;;;;;6.11;100.00;101316.00;5036432;28;20443;-70
2023/01/07 01:01:14;;;;;;;7.53;3.10;;;;;;;6.10;100.00;101325.13;5036324;28;20530;-70
2023/01/07 01:03:42;;;;;;;6.50;2.47;;;;;;;6.08;100.00;101311.13;5035752;28;21065;-70
2023/01/07 01:06:12;;;;;;;8.70;3.20;;;;;;;6.10;100.00;101314.34;5037248;28;20459;-70
2023/01/07 01:08:40;;;;;;;10.13;3.23;;;;;;;6.11;100.00;101320.53;5036080;28;20469;-70
2023/01/07 01:11:09;;;;;;;5.47;2.07;;;;;;;6.07;100.00;101325.66;5035861;28;20443;-70
2023/01/07 01:13:36;;;;;;;7.30;2.63;;;;;;;6.19;100.00;101328.97;5035894;28;20451;-70
2023/01/07 01:16:08;;;;;;;8.27;2.93;;;;;;;6.25;100.00;101319.91;5035488;28;20497;-71
2023/01/07 01:18:34;;;;;;;8.53;3.23;;;;;;;6.21;100.00;101329.56;5035584;28;20513;-70
2023/01/07 01:21:05;;;;;;;8.90;3.40;;;;;;;6.24;100.00;101321.00;5035876;28;20451;-70
2023/01/07 01:23:31;;;;;;;8.77;3.50;;;;;;;6.22;100.00;101316.91;5034579;28;20476;-71
2023/01/07 01:26:02;;;;;;;7.77;2.97;;;;;;;6.20;100.00;101325.25;5034494;28;22356;-70
2023/01/07 01:28:29;;;;;;;7.90;2.77;;;;;;;6.22;100.00;101325.78;5035723;28;20427;-70
2023/01/07 01:30:56;;;;;;;8.70;3.53;;;;;;;6.17;100.00;101317.66;5035669;28;20474;-71
2023/01/07 01:33:22;;;;;;;9.73;3.70;;;;;;;6.17;100.00;101331.13;5035605;28;20448;-71
2023/01/07 01:35:49;;;;;;;8.70;3.40;;;;;;;6.12;100.00;101327.56;5035051;28;20498;-71
2023/01/07 01:38:17;;;;;;;6.73;2.93;;;;;;;6.17;100.00;101322.25;5035280;28;20424;-71
2023/01/07 01:40:44;;;;;;;9.30;3.33;;;;;;;6.24;100.00;101325.53;5034987;28;20874;-71
2023/01/07 01:43:31;;;;;;;15.20;3.50;;;;;;;6.22;100.00;101320.41;5034989;28;20483;-71
2023/01/07 01:46:01;;;;;;;14.37;3.70;;;;;;;6.23;100.00;101318.53;5034932;28;20503;-71
2023/01/07 01:48:29;;;;;;;7.10;2.93;;;;;;;6.22;100.00;101327.66;5035136;28;20467;-67
2023/01/07 01:50:56;;;;;;;7.10;2.83;;;;;;;6.12;100.00;101320.31;5034915;28;20487;-71
2023/01/07 01:53:28;;;;;;;8.80;2.87;;;;;;;6.18;100.00;101321.97;5034720;28;20880;-70
2023/01/07 01:56:00;;;;;;;8.30;3.40;;;;;;;6.12;100.00;101312.25;5035275;28;20461;-72
2023/01/07 01:58:32;;;;;;;6.63;2.57;;;;;;;6.16;100.00;101318.75;5034484;28;21007;-72
2023/01/07 02:00:59;;;;;;;6.53;2.70;;;;;;;6.16;100.00;101308.00;5034365;28;20482;-71
2023/01/07 02:03:29;;;;;;;8.70;2.90;;;;;;;6.14;100.00;101318.16;5034412;28;21021;-71
2023/01/07 02:05:56;;;;;;;9.30;3.57;;;;;;;6.21;100.00;101307.22;5034506;28;20470;-71
2023/01/07 02:08:24;;;;;;;9.13;2.80;;;;;;;6.29;100.00;101310.28;5034832;28;20439;-71
2023/01/07 02:11:04;;;;;;;8.50;3.50;;;;;;;6.23;100.00;101300.50;5034518;28;20984;-71
2023/01/07 02:13:49;;;;;;;7.60;3.20;;;;;;;6.25;100.00;101298.41;5034365;28;20523;-71
2023/01/07 02:16:23;;;;;;;10.43;3.30;;;;;;;6.31;100.00;101300.06;5055395;22;20516;-71
2023/01/07 02:19:06;;;;;;;8.43;3.30;;;;;;;6.37;100.00;101303.59;5054599;28;20425;-71
2023/01/07 02:21:46;;;;;;;8.40;3.50;;;;;;;6.35;100.00;101294.16;5040373;28;20526;-70
2023/01/07 02:24:44;;;;;;;7.40;2.93;;;;;;;6.30;100.00;101290.38;5026072;28;20497;-70
2023/01/07 02:27:55;;;;;;;9.40;2.50;;;;;;;6.25;100.00;101290.31;5034051;28;20463;-71
2023/01/07 02:30:40;;;;;;;6.80;3.00;;;;;;;6.31;100.00;101289.28;5033815;28;20494;-70
2023/01/07 02:33:32;;;;;;;9.93;3.10;;;;;;;6.32;100.00;101277.47;5033405;28;20431;-71
2023/01/07 02:36:24;;;;;;;10.80;3.30;;;;;;;6.30;100.00;101282.28;5033924;28;20467;-71
2023/01/07 02:39:12;;;;;;;7.80;3.10;;;;;;;6.36;100.00;101285.03;5034264;28;20429;-71
2023/01/07 02:41:48;;;;;;;8.00;2.80;;;;;;;6.34;100.00;101284.47;5033900;28;20450;-71
2023/01/07 02:44:25;;;;;;;11.07;3.10;;;;;;;6.33;100.00;101275.59;5033641;28;20855;-71
2023/01/07 02:46:58;;;;;;;10.20;3.30;;;;;;;6.36;100.00;101280.44;5033674;28;21051;-71
2023/01/07 02:49:26;;;;;;;6.83;2.10;;;;;;;6.43;100.00;101277.56;5034034;28;20529;-69
2023/01/07 02:51:52;;;;;;;6.87;2.43;;;;;;;6.48;100.00;101272.22;5033624;28;20451;-70
2023/01/07 02:54:22;;;;;;;6.50;2.40;;;;;;;6.43;100.00;101264.94;5033682;28;20435;-70
2023/01/07 02:57:11;;;;;;;8.90;2.90;;;;;;;6.48;100.00;101256.06;5033764;28;20495;-71
2023/01/07 02:59:54;;;;;;;9.13;2.60;;;;;;;6.52;100.00;101246.44;5030114;28;20874;-71
2023/01/07 03:02:37;;;;;;;7.10;2.13;;;;;;;6.51;100.00;101263.66;5033804;28;20810;-71
2023/01/07 03:05:34;;;;;;;6.83;2.37;;;;;;;6.58;100.00;101258.84;5033295;28;20822;-71
2023/01/07 03:08:13;;;;;;;8.30;2.53;;;;;;;6.66;100.00;101261.06;5029971;28;20546;-70
2023/01/07 03:10:45;;;;;;;8.40;3.37;;;;;;;6.68;100.00;101264.28;5033586;28;20518;-70
2023/01/07 03:13:16;;;;;;;6.53;2.53;;;;;;;6.73;100.00;101264.34;5033751;28;20451;-70
2023/01/07 03:15:48;;;;;;;9.20;3.00;;;;;;;6.80;100.00;101273.00;5032877;28;20475;-71
2023/01/07 03:18:19;;;;;;;10.03;3.37;;;;;;;6.83;100.00;101272.50;5033362;28;20439;-71
2023/01/07 03:20:53;;;;;;;7.70;3.00;;;;;;;6.95;100.00;101277.69;5033142;28;20446;-69
2023/01/07 03:23:22;;;;;;;9.30;2.97;;;;;;;7.07;100.00;101274.78;5033551;28;20462;-70
2023/01/07 03:25:52;;;;;;;9.07;3.13;;;;;;;7.14;100.00;101270.00;5033096;28;20550;-71
2023/01/07 03:28:24;;;;;;;8.33;2.93;;;;;;;7.25;100.00;101271.66;5033021;28;20454;-70
2023/01/07 03:30:53;;;;;;;8.07;3.30;;;;;;;7.32;100.00;101272.25;5033029;28;20954;-70
2023/01/07 03:33:26;;;;;;;7.40;2.40;;;;;;;7.37;100.00;101271.47;5032945;28;20971;-70
2023/01/07 03:35:58;;;;;;;7.13;2.80;;;;;;;7.41;100.00;101269.06;5032914;28;20467;-70
2023/01/07 03:38:27;;;;;;;8.60;3.23;;;;;;;7.35;100.00;101265.53;5032776;28;20514;-70
2023/01/07 03:40:54;;;;;;;7.57;3.03;;;;;;;7.42;100.00;101259.88;5032649;28;20450;-70
2023/01/07 03:43:21;;;;;;;6.93;2.60;;;;;;;7.47;100.00;101270.69;5032977;28;20586;-71
2023/01/07 03:45:50;;;;;;;7.70;2.90;;;;;;;7.51;100.00;101264.50;5032904;28;20509;-70
2023/01/07 03:48:16;;;;;;;7.10;2.67;;;;;;;7.55;100.00;101254.81;5032701;28;20443;-71
2023/01/07 03:50:43;;;;;;;8.93;3.30;;;;;;;7.55;100.00;101248.63;5031745;28;20439;-70
2023/01/07 03:53:11;;;;;;;10.80;4.10;;;;;;;7.61;100.00;101236.75;5030285;28;20948;-71
2023/01/07 03:55:37;;;;;;;9.77;3.20;;;;;;;7.53;100.00;101234.59;5030463;28;20463;-70
2023/01/07 03:58:04;;;;;;;8.87;3.23;;;;;;;7.56;100.00;101234.06;5031862;28;20530;-71
2023/01/07 04:00:31;;;;;;;9.00;3.37;;;;;;;7.55;100.00;101235.13;5033133;28;20465;-71
2023/01/07 04:02:57;;;;;;;9.67;3.90;;;;;;;7.54;100.00;101237.03;5032704;28;20493;-71
2023/01/07 04:05:24;;;;;;;9.53;2.60;;;;;;;7.52;100.00;101232.97;5033054;28;20449;-70
2023/01/07 04:07:51;;;;;;;11.60;3.27;;;;;;;7.48;100.00;101242.66;5032771;28;20533;-70
2023/01/07 04:10:19;;;;;;;7.63;2.90;;;;;;;7.44;100.00;101237.00;5033102;28;20482;-71
2023/01/07 04:12:46;;;;;;;9.43;3.03;;;;;;;7.34;100.00;101235.06;5033021;28;20435;-71
2023/01/07 04:15:12;;;;;;;8.50;3.43;;;;;;;7.33;100.00;101238.03;5032945;28;20852;-70
2023/01/07 04:17:39;;;;;;;9.90;3.73;;;;;;;7.39;100.00;101234.25;5032543;28;20574;-71
2023/01/07 04:20:07;;;;;;;7.70;3.03;;;;;;;7.42;100.00;101222.97;5032947;28;20439;-70
2023/01/07 04:22:34;;;;;;;8.80;3.67;;;;;;;7.46;100.00;101218.66;5032402;28;20452;-71
2023/01/07 04:25:00;;;;;;;8.00;3.30;;;;;;;7.49;100.00;101210.06;5032631;28;20485;-70
2023/01/07 04:27:29;;;;;;;6.83;3.07;;;;;;;7.50;100.00;101216.25;5032704;28;20481;-71
2023/01/07 04:29:55;;;;;;;8.47;2.40;;;;;;;7.44;100.00;101214.63;5033476;28;20485;-70
2023/01/07 04:32:22;;;;;;;7.20;3.00;;;;;;;7.51;100.00;101212.47;5036452;28;20449;-71
2023/01/07 04:34:48;;;;;;;10.20;4.30;;;;;;;7.55;100.00;101216.28;5036218;28;20453;-70
2023/01/07 04:37:15;;;;;;;14.77;3.17;;;;;;;7.60;100.00;101224.38;5036352;28;20462;-70
2023/01/07 04:39:41;;;;;;;9.13;3.20;;;;;;;7.66;100.00;101220.63;5036322;28;20450;-71
2023/01/07 04:42:08;;;;;;;8.47;3.43;;;;;;;7.72;100.00;101226.84;5036253;28;20454;-71
2023/01/07 04:44:36;;;;;;;11.50;4.53;;;;;;;7.77;100.00;101224.16;5035875;28;20577;-71
2023/01/07 04:47:03;;;;;;;11.70;4.40;;;;;;;7.84;100.00;101216.63;5036086;28;20503;-72
2023/01/07 04:49:29;;;;;;;10.87;4.23;;;;;;;7.90;100.00;101215.53;5036045;28;20523;-71
2023/01/07 04:51:56;;;;;;;10.60;3.13;;;;;;;7.93;100.00;101215.03;5036277;28;20466;-71
2023/01/07 04:54:22;;;;;;;8.00;3.10;;;;;;;7.94;100.00;101215.81;5035818;28;20435;-71
2023/01/07 04:56:49;;;;;;;12.53;3.33;;;;;;;7.90;100.00;101203.94;5035901;28;21023;-71
2023/01/07 04:59:16;;;;;;;13.63;4.17;;;;;;;7.93;100.00;101216.91;5035763;28;20447;-72
2023/01/07 05:01:44;;;;;;;9.27;4.00;;;;;;;7.96;100.00;101214.47;5035396;28;20949;-71
2023/01/07 05:04:10;;;;;;;11.03;4.47;;;;;;;7.99;100.00;101219.34;5035484;28;20570;-71
2023/01/07 05:06:37;;;;;;;9.67;4.37;;;;;;;8.02;100.00;101216.09;5035638;28;20467;-71
2023/01/07 05:09:03;;;;;;;10.20;4.33;;;;;;;8.05;100.00;101212.03;5035896;28;20530;-71
2023/01/07 05:11:30;;;;;;;11.27;4.67;;;;;;;8.05;100.00;101212.84;5035830;28;20447;-71
2023/01/07 05:13:59;;;;;;;12.13;4.50;;;;;;;8.10;100.00;101212.03;5035712;28;20515;-71
2023/01/07 05:16:26;;;;;;;8.60;3.53;;;;;;;8.10;100.00;101214.75;5035005;28;20570;-71
2023/01/07 05:18:54;;;;;;;9.60;4.20;;;;;;;8.10;100.00;101212.03;5035424;28;20960;-71
2023/01/07 05:21:21;;;;;;;8.80;3.33;;;;;;;8.12;100.00;101212.59;5035267;28;20447;-71
2023/01/07 05:23:47;;;;;;;9.20;4.00;;;;;;;8.09;100.00;101200.44;5035753;28;20494;-71
2023/01/07 05:26:14;;;;;;;10.33;4.03;;;;;;;8.08;100.00;101198.03;5035185;28;20463;-71
2023/01/07 05:28:40;;;;;;;12.87;5.50;;;;;;;8.08;100.00;101203.44;5035020;28;20454;-72
2023/01/07 05:31:07;;;;;;;10.60;4.50;;;;;;;8.12;100.00;101195.59;5034929;28;20813;-72
2023/01/07 05:33:33;;;;;;;11.57;4.90;;;;;;;8.15;100.00;101198.59;5035080;28;20443;-72
2023/01/07 05:36:01;;;;;;;11.27;4.80;;;;;;;8.16;100.00;101200.19;5034919;28;20467;-71
2023/01/07 05:38:28;;;;;;;9.10;4.13;;;;;;;8.18;100.00;101192.63;5034991;28;20547;-71
2023/01/07 05:40:56;;;;;;;11.30;4.30;;;;;;;8.16;100.00;101188.59;5034939;28;20453;-72
2023/01/07 05:43:23;;;;;;;10.47;4.60;;;;;;;8.14;100.00;101198.84;5035403;28;20458;-72
2023/01/07 05:45:49;;;;;;;15.20;4.43;;;;;;;8.17;100.00;101201.00;5034975;28;20487;-72
2023/01/07 05:48:16;;;;;;;11.17;5.87;;;;;;;8.17;100.00;101192.91;5034899;28;20451;-71
2023/01/07 05:50:42;;;;;;;10.87;4.40;;;;;;;8.19;100.00;101182.63;5035115;28;20486;-71
2023/01/07 05:53:10;;;;;;;12.20;5.13;;;;;;;8.15;100.00;101187.78;5035084;28;20841;-72
2023/01/07 05:55:38;;;;;;;11.83;4.20;;;;;;;8.19;100.00;101191.56;5035153;28;20459;-70
2023/01/07 05:58:05;;;;;;;9.33;4.30;;;;;;;8.20;100.00;101189.69;5034635;28;20446;-74
2023/01/07 06:00:32;;;;;;;14.63;5.50;;;;;;;8.21;100.00;101188.59;5036167;28;20447;-72
2023/01/07 06:02:59;;;;;;;13.50;5.23;;;;;;;8.20;100.00;101193.19;5035027;28;20439;-73
2023/01/07 06:05:25;;;;;;;12.10;5.40;;;;;;;8.25;100.00;101186.97;5015447;28;20516;-71
2023/01/07 06:07:52;;;;;;;11.87;4.60;;;;;;;8.25;100.00;101192.38;5015201;28;20462;-71
2023/01/07 06:10:20;;;;;;;12.13;4.83;;;;;;;8.26;100.00;101189.38;5015141;28;20450;-70
2023/01/07 06:12:47;;;;;;;12.17;5.30;;;;;;;8.27;100.00;101190.19;5014839;28;20898;-71
2023/01/07 06:15:14;;;;;;;15.20;4.97;;;;;;;8.18;100.00;101192.63;5015087;28;20823;-70
2023/01/07 06:17:40;;;;;;;10.67;4.53;;;;;;;8.20;100.00;101187.78;5034237;28;20455;-70
2023/01/07 06:20:08;;;;;;;10.97;4.63;;;;;;;8.18;100.00;101189.13;5034783;28;20442;-70
2023/01/07 06:22:34;;;;;;;12.20;5.50;;;;;;;8.15;100.00;101203.97;5034553;28;20473;-71
2023/01/07 06:25:01;;;;;;;9.63;4.17;;;;;;;8.19;100.00;101202.38;5034075;28;20494;-71
2023/01/07 06:27:29;;;;;;;9.00;4.23;;;;;;;8.14;100.00;101202.34;5033907;28;20842;-71
2023/01/07 06:29:56;;;;;;;10.83;4.43;;;;;;;8.15;100.00;101197.78;5034348;28;20471;-70
2023/01/07 06:32:22;;;;;;;12.73;5.30;;;;;;;8.18;100.00;101192.63;5033826;28;20517;-71
2023/01/07 06:34:49;;;;;;;12.90;5.30;;;;;;;8.21;100.00;101191.28;5033476;28;20475;-70
2023/01/07 06:37:16;;;;;;;9.80;4.50;;;;;;;8.14;100.00;101188.03;5033722;28;21000;-71
2023/01/07 06:39:43;;;;;;;12.10;4.30;;;;;;;8.13;100.00;101187.22;5034299;28;20451;-71
2023/01/07 06:42:10;;;;;;;9.60;4.17;;;;;;;8.15;100.00;101181.59;5034351;28;20443;-71
2023/01/07 06:44:38;;;;;;;10.23;3.83;;;;;;;8.20;100.00;101178.88;5033567;28;20479;-71
2023/01/07 06:47:04;;;;;;;12.43;5.00;;;;;;;8.20;100.00;101187.78;5033955;28;20462;-70
2023/01/07 06:49:31;;;;;;;12.20;4.70;;;;;;;8.27;100.00;101195.59;5033883;28;20453;-70
2023/01/07 06:51:57;;;;;;;10.17;4.00;;;;;;;8.31;100.00;101204.78;5033301;28;20535;-71
2023/01/07 06:54:24;;;;;;;9.67;4.30;;;;;;;8.33;100.00;101197.22;5033638;28;20447;-71
2023/01/07 06:56:50;;;;;;;12.37;4.90;;;;;;;8.34;100.00;101194.25;5033418;28;20463;-70
2023/01/07 06:59:17;;;;;;;12.63;5.40;;;;;;;8.35;100.00;101206.66;5033548;28;20443;-70
2023/01/07 07:01:45;;;;;;;12.47;4.93;;;;;;;8.29;100.00;101202.34;5033293;28;20447;-71
2023/01/07 07:04:11;;;;;;;10.80;4.40;;;;;;;8.34;100.00;101202.34;5033401;28;20523;-70
2023/01/07 07:06:38;;;;;;;14.40;5.40;;;;;;;8.39;100.00;101201.56;5032916;28;20466;-71
2023/01/07 07:09:05;;;;;;;14.77;4.50;;;;;;;8.40;100.00;101202.38;5033166;28;20888;-71
2023/01/07 07:11:31;;;;;;;11.50;5.03;;;;;;;8.42;100.00;101200.22;5033814;28;20525;-71
2023/01/07 07:13:58;;;;;;;13.43;5.57;;;;;;;8.44;100.00;101200.75;5033483;28;20435;-72
2023/01/07 07:16:25;;;;;;;9.00;4.00;;;;;;;8.43;100.00;101193.75;5033108;28;20475;-72
2023/01/07 07:18:53;;;;;;;10.87;4.50;;;;;;;8.47;100.00;101198.31;5033042;28;20530;-72
2023/01/07 07:21:20;;;;;;;11.17;4.47;;;;;;;8.47;100.00;101200.22;5033617;28;20453;-72
2023/01/07 07:23:46;;;;;;;10.70;4.47;;;;;;;8.47;100.00;101206.44;5033309;28;20479;-69
2023/01/07 07:26:13;;;;;;;11.00;4.23;;;;;;;8.48;100.00;101196.44;5032468;28;21043;-68
2023/01/07 07:28:41;;;;;;;11.13;4.40;;;;;;;8.41;100.00;101210.22;5032661;28;20827;-69
2023/01/07 07:31:08;;;;;;;12.40;5.23;;;;;;;8.40;100.00;101205.06;5033129;28;20459;-68
2023/01/07 07:33:35;;;;;;;10.53;4.97;;;;;;;8.42;100.00;101225.34;5033261;28;20539;-69
2023/01/07 07:36:03;;;;;;;8.13;2.90;;;;;;;8.46;100.00;101214.81;5032416;28;20458;-69
2023/01/07 07:38:30;;;;;;;9.60;4.60;;;;;;;8.47;100.00;101221.81;5032774;28;20497;-69
2023/01/07 07:40:56;;;;;;;9.17;4.10;;;;;;;8.47;100.00;101216.41;5032662;28;20486;-68
2023/01/07 07:43:23;;;;;;;12.97;4.70;;;;;;;8.47;100.00;101213.72;5032725;28;20443;-69
2023/01/07 07:45:50;;;;;;;11.63;4.07;;;;;;;8.48;100.00;101215.31;5032873;28;20866;-69
2023/01/07 07:48:16;;;;;;;11.70;4.73;;;;;;;8.50;100.00;101210.47;5032771;28;20443;-71
2023/01/07 07:50:43;;;;;;;10.90;4.60;;;;;;;8.52;100.00;101206.41;5032668;28;20450;-70
2023/01/07 07:53:11;;;;;;;10.07;4.20;;;;;;;8.53;100.00;101209.91;5032641;28;20467;-71
2023/01/07 07:55:38;;;;;;;10.53;4.53;;;;;;;8.52;100.00;101211.00;5032945;28;20831;-71
2023/01/07 07:58:05;;;;;;;12.67;4.40;;;;;;;8.53;100.00;101204.53;5032435;28;20522;-69
2023/01/07 08:00:32;;;;;;;9.93;4.30;;;;;;;8.51;100.00;101212.09;5032384;28;20925;-71
2023/01/07 08:03:00;;;;;;;10.00;4.33;;;;;;;8.55;100.00;101218.56;5032626;28;20451;-71
2023/01/07 08:05:26;;;;;;;9.83;4.10;;;;;;;8.59;100.00;101209.66;5034563;28;21030;-71
2023/01/07 08:07:54;;;;;;;9.77;4.00;;;;;;;8.60;100.00;101221.25;5036575;28;20920;-70
2023/01/07 08:10:23;;;;;;;8.40;4.13;;;;;;;8.56;100.00;101220.19;5036789;28;20439;-71
2023/01/07 08:12:50;;;;;;;8.90;4.00;;;;;;;8.60;100.00;101215.88;5037037;28;20439;-71
2023/01/07 08:15:17;;;;;;;10.40;4.50;;;;;;;8.58;100.00;101202.63;5036817;28;20439;-70
2023/01/07 08:17:44;;;;;;;10.50;3.60;;;;;;;8.65;100.00;101210.44;5049106;22;20501;-80
2023/01/07 08:20:12;;;;;;;8.70;3.77;;;;;;;8.69;100.00;101203.44;5038590;28;20546;-78
2023/01/07 08:22:39;;;;;;;12.63;4.00;;;;;;;8.73;100.00;101209.09;5039670;28;20447;-79
2023/01/07 08:25:06;;;;;;;9.93;3.97;;;;;;;8.77;100.00;101205.56;5064127;22;20522;-67
2023/01/07 08:27:34;;;;;;;10.77;3.87;;;;;;;8.83;100.00;101209.88;5046046;28;20845;-65
2023/01/07 08:30:01;;;;;;;11.67;4.17;;;;;;;8.89;100.00;101215.25;5036319;28;20940;-66
2023/01/07 08:32:27;;;;;;;8.70;3.77;;;;;;;8.94;100.00;101212.53;5035523;28;20447;-65
2023/01/07 08:34:54;;;;;;;9.70;3.50;;;;;;;8.89;100.00;101210.66;5037626;28;20526;-66
2023/01/07 08:37:21;;;;;;;11.83;4.00;;;;;;;8.99;100.00;101209.84;5036219;28;20490;-66
2023/01/07 08:39:48;;;;;;;9.47;4.27;;;;;;;9.01;100.00;101210.38;5033906;28;20475;-67
2023/01/07 08:42:14;;;;;;;8.40;3.57;;;;;;;9.02;100.00;101207.38;5036569;28;20447;-66
2023/01/07 08:44:42;;;;;;;9.00;4.03;;;;;;;9.07;100.00;101196.59;5036262;28;20475;-66
2023/01/07 08:47:09;;;;;;;8.13;3.50;;;;;;;9.13;100.00;101210.06;5036288;28;20533;-66
2023/01/07 08:49:35;;;;;;;10.60;4.53;;;;;;;9.18;100.00;101210.84;5036520;28;20445;-66
2023/01/07 08:52:02;;;;;;;10.57;4.33;;;;;;;9.20;100.00;101208.66;5036497;28;20439;-66
2023/01/07 08:54:29;;;;;;;8.20;3.30;;;;;;;9.21;100.00;101199.50;5034840;28;20964;-66
2023/01/07 08:56:55;;;;;;;9.10;3.73;;;;;;;9.27;100.00;101209.19;5035691;28;20837;-66
2023/01/07 08:59:22;;;;;;;9.80;3.37;;;;;;;9.29;100.00;101206.22;5036267;28;20471;-66
2023/01/07 09:01:50;;;;;;;12.10;4.50;;;;;;;9.33;100.00;101205.38;5036233;28;20439;-66
2023/01/07 09:04:16;;;;;;;8.10;2.93;;;;;;;9.42;100.00;101204.81;5036298;28;20881;-67
2023/01/07 09:06:43;;;;;;;9.53;3.27;;;;;;;9.47;100.00;101202.88;5035822;28;21034;-66
2023/01/07 09:09:10;;;;;;;7.50;2.93;;;;;;;9.51;100.00;101205.84;5036266;28;20473;-66
2023/01/07 09:11:37;;;;;;;7.93;3.43;;;;;;;9.56;100.00;101203.09;5035782;28;20443;-68
2023/01/07 09:14:04;;;;;;;9.93;3.87;;;;;;;9.58;100.00;101204.44;5036061;28;20482;-68
2023/01/07 09:16:30;;;;;;;7.97;2.70;;;;;;;9.63;100.00;101200.09;5035354;28;20451;-67
2023/01/07 09:18:58;;;;;;;8.33;3.30;;;;;;;9.57;100.00;101196.63;5035396;28;20442;-70
2023/01/07 09:21:25;;;;;;;8.87;3.57;;;;;;;9.52;100.00;101191.25;5035658;28;20475;-69
2023/01/07 09:23:51;;;;;;;7.30;3.10;;;;;;;9.59;100.00;101199.84;5035597;28;20450;-69
2023/01/07 09:26:18;;;;;;;9.03;3.37;;;;;;;9.65;100.00;101187.09;5036629;28;20526;-69
2023/01/07 09:28:44;;;;;;;8.87;3.90;;;;;;;9.72;100.00;101196.53;5035607;28;20531;-69
2023/01/07 09:31:11;;;;;;;8.73;3.87;;;;;;;9.70;100.00;101195.19;5035888;28;20478;-69
2023/01/07 09:33:39;;;;;;;8.70;3.00;;;;;;;9.74;100.00;101197.06;5035816;28;20487;-69
2023/01/07 09:36:08;;;;;;;9.43;3.20;;;;;;;9.70;100.00;101193.31;5035721;28;20443;-69
2023/01/07 09:38:35;;;;;;;8.30;2.53;;;;;;;9.61;100.00;101197.69;5035245;28;20482;-69
2023/01/07 09:41:02;;;;;;;11.87;3.60;;;;;;;9.54;100.00;101195.28;5035376;28;20947;-69
2023/01/07 09:43:34;;;;;;;5.83;2.47;;;;;;;9.51;100.00;101192.31;5035387;28;20447;-69
2023/01/07 09:46:07;;;;;;;7.60;3.20;;;;;;;9.45;100.00;101188.03;5034463;28;21009;-69
2023/01/07 09:48:38;;;;;;;8.17;3.17;;;;;;;9.47;100.00;101185.84;5035486;28;20436;-69
2023/01/07 09:51:13;;;;;;;8.17;3.23;;;;;;;9.46;100.00;101185.03;5036062;28;20530;-69
2023/01/07 09:53:43;;;;;;;9.50;3.20;;;;;;;9.52;100.00;101185.84;5035169;28;20435;-69
2023/01/07 09:56:17;;;;;;;8.20;3.23;;;;;;;9.59;100.00;101189.03;5035213;28;20461;-69
2023/01/07 09:58:47;;;;;;;9.57;2.90;;;;;;;9.68;100.00;101186.53;5041423;28;20435;-69
2023/01/07 10:01:25;;;;;;;8.70;3.53;;;;;;;9.76;100.00;101181.34;5035042;28;20800;-70
2023/01/07 10:04:06;;;;;;;10.03;3.60;;;;;;;9.82;100.00;101193.75;5037225;28;20434;-70
2023/01/07 10:06:43;;;;;;;17.33;4.27;;;;;;;9.88;100.00;101186.41;5025001;28;20493;-70
2023/01/07 10:09:25;;;;;;;9.00;3.93;;;;;;;9.92;100.00;101181.25;5035518;28;20799;-70
2023/01/07 10:12:01;;;;;;;8.57;3.10;;;;;;;9.96;100.00;101171.47;5015580;28;20483;-70
2023/01/07 10:14:52;;;;;;;7.77;3.13;;;;;;;9.96;100.00;101180.41;5015035;28;20436;-70
2023/01/07 10:17:29;;;;;;;11.00;3.40;;;;;;;9.98;100.00;101175.50;5014883;28;20543;-70
2023/01/07 10:20:03;;;;;;;7.00;2.60;;;;;;;10.05;100.00;101165.19;5022098;28;20924;-70
2023/01/07 10:22:36;;;;;;;9.37;3.00;;;;;;;10.12;100.00;101170.25;5034763;28;20511;-70
2023/01/07 10:25:13;;;;;;;6.80;2.27;;;;;;;10.16;100.00;101165.09;5034875;28;20437;-70
2023/01/07 10:27:45;;;;;;;7.20;3.00;;;;;;;10.10;100.00;101167.84;5033921;28;20571;-70
2023/01/07 10:30:15;;;;;;;7.50;2.30;;;;;;;10.06;100.00;101161.38;5030266;28;20792;-69
2023/01/07 10:32:43;;;;;;;8.37;3.30;;;;;;;10.04;100.00;101151.91;5014974;28;20471;-69
2023/01/07 10:35:16;;;;;;;7.00;2.80;;;;;;;10.08;100.00;101150.25;5014866;28;20451;-70
2023/01/07 10:37:44;;;;;;;5.93;2.13;;;;;;;10.06;100.00;101145.16;5015425;28;20478;-68
2023/01/07 10:40:25;;;;;;;7.90;2.60;;;;;;;10.06;100.00;101145.16;5034339;28;20458;-67
2023/01/07 10:43:00;;;;;;;6.70;2.30;;;;;;;10.06;100.00;101139.72;5034444;28;20467;-67
2023/01/07 10:45:47;;;;;;;6.77;2.20;;;;;;;10.06;100.00;101131.59;5034298;28;20514;-67
2023/01/07 10:48:29;;;;;;;8.30;2.53;;;;;;;10.14;100.00;101132.91;5034381;28;20467;-67
2023/01/07 10:51:08;;;;;;;6.60;2.27;;;;;;;10.24;100.00;101135.53;5033905;28;20431;-67
2023/01/07 10:53:48;;;;;;;6.10;1.90;;;;;;;10.28;100.00;101133.88;5033868;28;20427;-67
2023/01/07 10:56:24;;;;;;;7.70;3.10;;;;;;;10.27;100.00;101126.84;5034232;28;20533;-67
2023/01/07 10:58:51;;;;;;;16.80;2.97;;;;;;;10.30;100.00;101126.25;5034191;28;20441;-67
2023/01/07 11:01:23;;;;;;;6.50;2.33;;;;;;;10.35;100.00;101117.28;5033533;28;20447;-67
2023/01/07 11:03:52;;;;;;;7.93;2.47;;;;;;;10.44;100.00;101117.47;5034059;28;20424;-67
2023/01/07 11:06:33;;;;;;;9.47;2.73;;;;;;;10.47;100.00;101130.44;5033098;28;20511;-67
2023/01/07 11:09:04;;;;;;;12.10;3.63;;;;;;;10.50;100.00;101108.22;5033607;28;20426;-67
2023/01/07 11:11:32;;;;;;;5.97;1.93;;;;;;;10.52;100.00;101114.13;5033952;28;20857;-67
2023/01/07 11:14:01;;;;;;;7.27;2.13;;;;;;;10.53;100.00;101110.31;5033787;28;20447;-67
2023/01/07 11:16:35;;;;;;;7.10;2.30;;;;;;;10.51;100.00;101105.22;5033460;28;20468;-67
2023/01/07 11:19:06;;;;;;;5.80;2.00;;;;;;;10.57;100.00;101097.81;5032824;28;20455;-68
2023/01/07 11:21:36;;;;;;;6.30;2.37;;;;;;;10.54;100.00;101096.50;5033438;28;20436;-66
2023/01/07 11:24:27;;;;;;;6.87;2.30;;;;;;;10.59;100.00;101092.94;5030488;28;20478;-66
2023/01/07 11:26:59;;;;;;;8.73;2.60;;;;;;;10.59;100.00;101082.91;5032847;28;20491;-66
2023/01/07 11:29:29;;;;;;;8.10;3.20;;;;;;;10.60;100.00;101084.53;5033153;28;20518;-66
2023/01/07 11:31:58;;;;;;;6.87;2.67;;;;;;;10.70;100.00;101094.41;5033243;28;20443;-66
2023/01/07 11:34:27;;;;;;;7.60;3.03;;;;;;;10.76;100.00;101090.56;5033532;28;20526;-66